sensor_id;sensor_type;location;lat;lon;timestamp;P1;durP1;ratioP1;P2;durP2;ratioP2
15667;SDS011;7934;48.710;9.024;2022-12-10T00:10:44;54.97;;;25.83;;
15667;SDS011;7934;48.710;9.024;2022-12-10T00:13:16;51.93;;;27.13;;
15667;SDS011;7934;48.710;9.024;2022-12-10T00:15:57;48.13;;;24.93;;
15667;SDS011;7934;48.710;9.024;2022-12-10T00:18:30;49.70;;;28.00;;
15667;SDS011;7934;48.710;9.024;2022-12-10T00:21:01;49.87;;;27.07;;
15667;SDS011;7934;48.710;9.024;2022-12-10T00:23:31;48.77;;;24.47;;
15667;SDS011;7934;48.710;9.024;2022-12-10T00:29:12;50.70;;;27.80;;
15667;SDS011;7934;48.710;9.024;2022-12-10T00:35:02;55.30;;;28.33;;
15667;SDS011;7934;48.710;9.024;2022-12-10T00:37:39;50.70;;;26.77;;
15667;SDS011;7934;48.710;9.024;2022-12-10T00:43:22;50.67;;;26.30;;
15667;SDS011;7934;48.710;9.024;2022-12-10T00:46:11;56.60;;;27.20;;
15667;SDS011;7934;48.710;9.024;2022-12-10T00:48:39;52.53;;;27.37;;
15667;SDS011;7934;48.710;9.024;2022-12-10T00:51:23;53.93;;;28.27;;
15667;SDS011;7934;48.710;9.024;2022-12-10T00:57:17;54.83;;;28.23;;
15667;SDS011;7934;48.710;9.024;2022-12-10T01:19:04;48.73;;;26.37;;
15667;SDS011;7934;48.710;9.024;2022-12-10T01:21:53;44.97;;;26.47;;
15667;SDS011;7934;48.710;9.024;2022-12-10T01:36:22;45.50;;;24.97;;
15667;SDS011;7934;48.710;9.024;2022-12-10T01:41:50;51.27;;;25.53;;
15667;SDS011;7934;48.710;9.024;2022-12-10T01:47:45;55.15;;;35.53;;
15667;SDS011;7934;48.710;9.024;2022-12-10T02:00:12;48.93;;;25.70;;
15667;SDS011;7934;48.710;9.024;2022-12-10T02:10:12;52.10;;;26.63;;
15667;SDS011;7934;48.710;9.024;2022-12-10T02:46:33;51.67;;;26.90;;
15667;SDS011;7934;48.710;9.024;2022-12-10T02:52:08;49.53;;;25.67;;
15667;SDS011;7934;48.710;9.024;2022-12-10T02:54:44;59.30;;;26.80;;
15667;SDS011;7934;48.710;9.024;2022-12-10T03:00:39;49.67;;;26.40;;
15667;SDS011;7934;48.710;9.024;2022-12-10T03:12:01;49.13;;;25.70;;
15667;SDS011;7934;48.710;9.024;2022-12-10T03:14:39;47.13;;;26.10;;
15667;SDS011;7934;48.710;9.024;2022-12-10T03:20:10;54.60;;;26.23;;
15667;SDS011;7934;48.710;9.024;2022-12-10T03:25:45;49.07;;;25.03;;
15667;SDS011;7934;48.710;9.024;2022-12-10T03:28:50;48.50;;;26.10;;
15667;SDS011;7934;48.710;9.024;2022-12-10T03:31:45;52.43;;;26.47;;
15667;SDS011;7934;48.710;9.024;2022-12-10T03:34:23;44.83;;;23.53;;
15667;SDS011;7934;48.710;9.024;2022-12-10T03:46:44;48.60;;;24.40;;
15667;SDS011;7934;48.710;9.024;2022-12-10T03:49:26;45.03;;;25.07;;
15667;SDS011;7934;48.710;9.024;2022-12-10T03:51:55;44.77;;;25.47;;
15667;SDS011;7934;48.710;9.024;2022-12-10T04:05:52;50.07;;;25.10;;
15667;SDS011;7934;48.710;9.024;2022-12-10T04:11:54;52.00;;;25.20;;
15667;SDS011;7934;48.710;9.024;2022-12-10T04:14:25;48.47;;;25.53;;
15667;SDS011;7934;48.710;9.024;2022-12-10T04:17:11;49.00;;;25.53;;
15667;SDS011;7934;48.710;9.024;2022-12-10T04:28:58;43.40;;;24.73;;
15667;SDS011;7934;48.710;9.024;2022-12-10T04:37:04;52.53;;;26.20;;
15667;SDS011;7934;48.710;9.024;2022-12-10T04:39:27;47.17;;;22.83;;
15667;SDS011;7934;48.710;9.024;2022-12-10T04:44:21;53.37;;;25.07;;
15667;SDS011;7934;48.710;9.024;2022-12-10T04:46:57;46.07;;;25.27;;
15667;SDS011;7934;48.710;9.024;2022-12-10T04:50:32;44.20;;;24.43;;
15667;SDS011;7934;48.710;9.024;2022-12-10T04:58:50;46.20;;;25.50;;
15667;SDS011;7934;48.710;9.024;2022-12-10T05:04:20;46.77;;;25.40;;
15667;SDS011;7934;48.710;9.024;2022-12-10T05:06:49;44.63;;;25.53;;
15667;SDS011;7934;48.710;9.024;2022-12-10T05:09:44;45.37;;;23.63;;
15667;SDS011;7934;48.710;9.024;2022-12-10T05:12:29;44.07;;;24.03;;
15667;SDS011;7934;48.710;9.024;2022-12-10T05:21:12;48.00;;;25.13;;
15667;SDS011;7934;48.710;9.024;2022-12-10T05:24:03;48.00;;;24.90;;
15667;SDS011;7934;48.710;9.024;2022-12-10T05:27:02;45.23;;;23.63;;
15667;SDS011;7934;48.710;9.024;2022-12-10T05:29:51;43.80;;;24.23;;
15667;SDS011;7934;48.710;9.024;2022-12-10T05:32:44;43.73;;;24.13;;
15667;SDS011;7934;48.710;9.024;2022-12-10T05:36:04;46.47;;;24.27;;
15667;SDS011;7934;48.710;9.024;2022-12-10T05:38:46;50.23;;;24.87;;
15667;SDS011;7934;48.710;9.024;2022-12-10T05:41:15;46.20;;;26.67;;
15667;SDS011;7934;48.710;9.024;2022-12-10T05:44:14;46.70;;;24.97;;
15667;SDS011;7934;48.710;9.024;2022-12-10T05:47:06;42.53;;;22.67;;
15667;SDS011;7934;48.710;9.024;2022-12-10T05:52:53;45.07;;;22.77;;
15667;SDS011;7934;48.710;9.024;2022-12-10T06:11:03;50.67;;;24.03;;
15667;SDS011;7934;48.710;9.024;2022-12-10T06:26:25;50.50;;;26.03;;
15667;SDS011;7934;48.710;9.024;2022-12-10T06:29:19;54.33;;;27.47;;
15667;SDS011;7934;48.710;9.024;2022-12-10T06:50:33;53.93;;;27.77;;
15667;SDS011;7934;48.710;9.024;2022-12-10T06:59:58;49.30;;;25.60;;
15667;SDS011;7934;48.710;9.024;2022-12-10T07:03:00;48.67;;;26.13;;
15667;SDS011;7934;48.710;9.024;2022-12-10T07:11:41;55.13;;;26.17;;
15667;SDS011;7934;48.710;9.024;2022-12-10T07:14:31;55.27;;;28.47;;
15667;SDS011;7934;48.710;9.024;2022-12-10T07:41:56;49.77;;;25.47;;
15667;SDS011;7934;48.710;9.024;2022-12-10T07:45:06;50.30;;;27.27;;
15667;SDS011;7934;48.710;9.024;2022-12-10T07:50:58;52.40;;;26.53;;
15667;SDS011;7934;48.710;9.024;2022-12-10T07:56:39;47.50;;;25.63;;
15667;SDS011;7934;48.710;9.024;2022-12-10T08:09:19;49.07;;;26.07;;
15667;SDS011;7934;48.710;9.024;2022-12-10T08:15:16;47.53;;;25.93;;
15667;SDS011;7934;48.710;9.024;2022-12-10T08:18:25;44.73;;;25.20;;
15667;SDS011;7934;48.710;9.024;2022-12-10T08:39:35;41.63;;;23.33;;
15667;SDS011;7934;48.710;9.024;2022-12-10T08:42:39;44.23;;;24.60;;
15667;SDS011;7934;48.710;9.024;2022-12-10T08:45:08;46.93;;;25.00;;
15667;SDS011;7934;48.710;9.024;2022-12-10T08:47:36;46.00;;;24.50;;
15667;SDS011;7934;48.710;9.024;2022-12-10T08:50:20;46.37;;;23.83;;
15667;SDS011;7934;48.710;9.024;2022-12-10T08:52:55;42.63;;;23.83;;
15667;SDS011;7934;48.710;9.024;2022-12-10T08:55:31;40.80;;;22.53;;
15667;SDS011;7934;48.710;9.024;2022-12-10T08:58:16;44.37;;;24.13;;
15667;SDS011;7934;48.710;9.024;2022-12-10T09:01:05;41.43;;;24.53;;
15667;SDS011;7934;48.710;9.024;2022-12-10T09:03:55;43.90;;;24.93;;
15667;SDS011;7934;48.710;9.024;2022-12-10T09:06:30;43.03;;;23.23;;
15667;SDS011;7934;48.710;9.024;2022-12-10T09:09:00;38.87;;;22.93;;
15667;SDS011;7934;48.710;9.024;2022-12-10T09:12:01;40.40;;;22.63;;
15667;SDS011;7934;48.710;9.024;2022-12-10T09:14:32;43.83;;;24.20;;
15667;SDS011;7934;48.710;9.024;2022-12-10T09:20:04;40.43;;;22.93;;
15667;SDS011;7934;48.710;9.024;2022-12-10T09:22:32;37.63;;;22.30;;
15667;SDS011;7934;48.710;9.024;2022-12-10T09:28:10;43.73;;;25.67;;
15667;SDS011;7934;48.710;9.024;2022-12-10T09:30:44;38.50;;;23.73;;
15667;SDS011;7934;48.710;9.024;2022-12-10T09:33:40;41.90;;;23.00;;
15667;SDS011;7934;48.710;9.024;2022-12-10T09:42:25;43.93;;;23.13;;
15667;SDS011;7934;48.710;9.024;2022-12-10T09:45:21;41.57;;;23.63;;
15667;SDS011;7934;48.710;9.024;2022-12-10T09:48:07;40.83;;;22.57;;
15667;SDS011;7934;48.710;9.024;2022-12-10T09:50:41;37.30;;;21.40;;
15667;SDS011;7934;48.710;9.024;2022-12-10T09:53:36;41.23;;;23.00;;
15667;SDS011;7934;48.710;9.024;2022-12-10T09:56:19;39.30;;;22.53;;
15667;SDS011;7934;48.710;9.024;2022-12-10T09:58:55;38.30;;;22.73;;
15667;SDS011;7934;48.710;9.024;2022-12-10T10:01:29;42.77;;;22.57;;
15667;SDS011;7934;48.710;9.024;2022-12-10T10:04:21;41.60;;;28.80;;
15667;SDS011;7934;48.710;9.024;2022-12-10T10:07:10;41.92;;;25.67;;
15667;SDS011;7934;48.710;9.024;2022-12-10T10:09:47;40.23;;;23.87;;
15667;SDS011;7934;48.710;9.024;2022-12-10T10:12:21;39.90;;;23.20;;
15667;SDS011;7934;48.710;9.024;2022-12-10T10:15:16;38.37;;;23.97;;
15667;SDS011;7934;48.710;9.024;2022-12-10T10:17:49;38.50;;;23.90;;
15667;SDS011;7934;48.710;9.024;2022-12-10T10:20:29;39.73;;;21.60;;
15667;SDS011;7934;48.710;9.024;2022-12-10T10:23:05;41.17;;;22.57;;
15667;SDS011;7934;48.710;9.024;2022-12-10T10:25:44;34.93;;;20.47;;
15667;SDS011;7934;48.710;9.024;2022-12-10T10:31:41;44.00;;;22.93;;
15667;SDS011;7934;48.710;9.024;2022-12-10T10:34:42;36.63;;;21.17;;
15667;SDS011;7934;48.710;9.024;2022-12-10T10:37:25;35.70;;;21.03;;
15667;SDS011;7934;48.710;9.024;2022-12-10T10:40:14;43.80;;;21.57;;
15667;SDS011;7934;48.710;9.024;2022-12-10T10:44:13;32.27;;;19.87;;
15667;SDS011;7934;48.710;9.024;2022-12-10T10:45:56;37.40;;;20.17;;
15667;SDS011;7934;48.710;9.024;2022-12-10T10:48:39;42.20;;;20.93;;
15667;SDS011;7934;48.710;9.024;2022-12-10T10:51:20;32.70;;;19.97;;
15667;SDS011;7934;48.710;9.024;2022-12-10T10:53:48;35.70;;;21.37;;
15667;SDS011;7934;48.710;9.024;2022-12-10T10:56:21;35.57;;;20.53;;
15667;SDS011;7934;48.710;9.024;2022-12-10T10:58:51;33.67;;;20.57;;
15667;SDS011;7934;48.710;9.024;2022-12-10T11:01:19;34.80;;;20.80;;
15667;SDS011;7934;48.710;9.024;2022-12-10T11:04:00;35.83;;;21.57;;
15667;SDS011;7934;48.710;9.024;2022-12-10T11:09:39;33.00;;;19.10;;
15667;SDS011;7934;48.710;9.024;2022-12-10T11:12:21;30.53;;;17.67;;
15667;SDS011;7934;48.710;9.024;2022-12-10T11:15:21;36.10;;;20.47;;
15667;SDS011;7934;48.710;9.024;2022-12-10T11:18:22;32.40;;;19.97;;
15667;SDS011;7934;48.710;9.024;2022-12-10T11:20:56;32.07;;;19.80;;
15667;SDS011;7934;48.710;9.024;2022-12-10T11:23:36;29.73;;;18.63;;
15667;SDS011;7934;48.710;9.024;2022-12-10T11:26:24;29.33;;;17.83;;
15667;SDS011;7934;48.710;9.024;2022-12-10T11:29:04;26.03;;;16.80;;
15667;SDS011;7934;48.710;9.024;2022-12-10T11:32:11;27.40;;;16.57;;
15667;SDS011;7934;48.710;9.024;2022-12-10T11:35:02;28.33;;;18.30;;
15667;SDS011;7934;48.710;9.024;2022-12-10T11:37:32;25.50;;;17.17;;
15667;SDS011;7934;48.710;9.024;2022-12-10T11:40:14;29.23;;;18.57;;
15667;SDS011;7934;48.710;9.024;2022-12-10T11:42:50;31.20;;;18.30;;
15667;SDS011;7934;48.710;9.024;2022-12-10T11:45:23;33.57;;;18.90;;
15667;SDS011;7934;48.710;9.024;2022-12-10T11:47:55;28.60;;;17.57;;
15667;SDS011;7934;48.710;9.024;2022-12-10T11:50:31;30.97;;;17.90;;
15667;SDS011;7934;48.710;9.024;2022-12-10T11:53:24;29.13;;;17.93;;
15667;SDS011;7934;48.710;9.024;2022-12-10T11:55:56;28.63;;;17.20;;
15667;SDS011;7934;48.710;9.024;2022-12-10T11:58:45;28.00;;;17.53;;
15667;SDS011;7934;48.710;9.024;2022-12-10T12:01:31;28.63;;;17.40;;
15667;SDS011;7934;48.710;9.024;2022-12-10T12:04:23;27.90;;;16.77;;
15667;SDS011;7934;48.710;9.024;2022-12-10T12:07:10;27.63;;;17.17;;
15667;SDS011;7934;48.710;9.024;2022-12-10T12:09:42;24.33;;;16.47;;
15667;SDS011;7934;48.710;9.024;2022-12-10T12:12:16;26.93;;;17.43;;
15667;SDS011;7934;48.710;9.024;2022-12-10T12:15:01;25.20;;;16.97;;
15667;SDS011;7934;48.710;9.024;2022-12-10T12:17:30;32.07;;;19.33;;
15667;SDS011;7934;48.710;9.024;2022-12-10T12:20:00;27.37;;;18.70;;
15667;SDS011;7934;48.710;9.024;2022-12-10T12:22:29;26.97;;;16.57;;
15667;SDS011;7934;48.710;9.024;2022-12-10T12:25:14;27.77;;;17.33;;
15667;SDS011;7934;48.710;9.024;2022-12-10T12:27:46;27.13;;;18.03;;
15667;SDS011;7934;48.710;9.024;2022-12-10T12:30:18;29.90;;;17.77;;
15667;SDS011;7934;48.710;9.024;2022-12-10T12:32:54;28.53;;;18.73;;
15667;SDS011;7934;48.710;9.024;2022-12-10T12:35:27;28.00;;;17.17;;
15667;SDS011;7934;48.710;9.024;2022-12-10T12:37:57;28.50;;;17.47;;
15667;SDS011;7934;48.710;9.024;2022-12-10T12:40:28;24.77;;;16.10;;
15667;SDS011;7934;48.710;9.024;2022-12-10T12:42:57;30.80;;;17.13;;
15667;SDS011;7934;48.710;9.024;2022-12-10T12:45:31;25.07;;;16.27;;
15667;SDS011;7934;48.710;9.024;2022-12-10T12:48:04;25.02;;;16.70;;
15667;SDS011;7934;48.710;9.024;2022-12-10T12:50:39;22.80;;;16.07;;
15667;SDS011;7934;48.710;9.024;2022-12-10T12:53:08;25.33;;;15.73;;
15667;SDS011;7934;48.710;9.024;2022-12-10T12:55:38;27.00;;;16.17;;
15667;SDS011;7934;48.710;9.024;2022-12-10T12:58:16;26.90;;;15.17;;
15667;SDS011;7934;48.710;9.024;2022-12-10T13:00:57;25.00;;;15.40;;
15667;SDS011;7934;48.710;9.024;2022-12-10T13:03:32;26.10;;;15.30;;
15667;SDS011;7934;48.710;9.024;2022-12-10T13:06:16;20.73;;;14.00;;
15667;SDS011;7934;48.710;9.024;2022-12-10T13:08:45;23.03;;;14.87;;
15667;SDS011;7934;48.710;9.024;2022-12-10T13:11:30;20.20;;;14.00;;
15667;SDS011;7934;48.710;9.024;2022-12-10T13:14:11;23.03;;;15.13;;
15667;SDS011;7934;48.710;9.024;2022-12-10T13:16:47;21.77;;;14.40;;
15667;SDS011;7934;48.710;9.024;2022-12-10T13:19:16;27.80;;;15.67;;
15667;SDS011;7934;48.710;9.024;2022-12-10T13:21:58;27.97;;;15.33;;
15667;SDS011;7934;48.710;9.024;2022-12-10T13:27:45;25.90;;;15.53;;
15667;SDS011;7934;48.710;9.024;2022-12-10T13:30:30;24.43;;;15.93;;
15667;SDS011;7934;48.710;9.024;2022-12-10T13:33:23;32.60;;;15.83;;
15667;SDS011;7934;48.710;9.024;2022-12-10T13:35:57;25.27;;;14.87;;
15667;SDS011;7934;48.710;9.024;2022-12-10T13:41:16;22.03;;;14.63;;
15667;SDS011;7934;48.710;9.024;2022-12-10T13:44:21;24.53;;;15.07;;
15667;SDS011;7934;48.710;9.024;2022-12-10T13:47:04;26.23;;;15.37;;
15667;SDS011;7934;48.710;9.024;2022-12-10T13:49:42;24.63;;;14.47;;
15667;SDS011;7934;48.710;9.024;2022-12-10T13:52:15;27.93;;;15.30;;
15667;SDS011;7934;48.710;9.024;2022-12-10T14:00:29;24.63;;;15.50;;
15667;SDS011;7934;48.710;9.024;2022-12-10T14:06:00;22.87;;;14.77;;
15667;SDS011;7934;48.710;9.024;2022-12-10T14:08:31;23.77;;;14.43;;
15667;SDS011;7934;48.710;9.024;2022-12-10T14:10:59;27.87;;;16.60;;
15667;SDS011;7934;48.710;9.024;2022-12-10T14:13:30;26.77;;;16.83;;
15667;SDS011;7934;48.710;9.024;2022-12-10T14:16:04;29.00;;;14.80;;
15667;SDS011;7934;48.710;9.024;2022-12-10T14:18:46;26.47;;;16.73;;
15667;SDS011;7934;48.710;9.024;2022-12-10T14:21:18;31.37;;;16.07;;
15667;SDS011;7934;48.710;9.024;2022-12-10T14:23:49;25.83;;;15.77;;
15667;SDS011;7934;48.710;9.024;2022-12-10T14:26:27;25.40;;;14.63;;
15667;SDS011;7934;48.710;9.024;2022-12-10T14:29:11;22.20;;;14.97;;
15667;SDS011;7934;48.710;9.024;2022-12-10T14:32:13;24.70;;;14.80;;
15667;SDS011;7934;48.710;9.024;2022-12-10T14:38:13;20.83;;;13.20;;
15667;SDS011;7934;48.710;9.024;2022-12-10T14:41:09;26.20;;;14.70;;
15667;SDS011;7934;48.710;9.024;2022-12-10T14:43:56;23.20;;;14.07;;
15667;SDS011;7934;48.710;9.024;2022-12-10T14:46:27;25.27;;;14.47;;
15667;SDS011;7934;48.710;9.024;2022-12-10T14:48:55;25.47;;;14.70;;
15667;SDS011;7934;48.710;9.024;2022-12-10T14:51:23;27.77;;;15.23;;
15667;SDS011;7934;48.710;9.024;2022-12-10T14:54:14;27.03;;;14.60;;
15667;SDS011;7934;48.710;9.024;2022-12-10T14:56:48;28.13;;;15.90;;
15667;SDS011;7934;48.710;9.024;2022-12-10T14:59:15;27.10;;;16.57;;
15667;SDS011;7934;48.710;9.024;2022-12-10T15:02:11;26.27;;;16.07;;
15667;SDS011;7934;48.710;9.024;2022-12-10T15:04:54;23.57;;;14.80;;
15667;SDS011;7934;48.710;9.024;2022-12-10T15:07:49;28.63;;;17.43;;
15667;SDS011;7934;48.710;9.024;2022-12-10T15:10:22;25.27;;;15.57;;
15667;SDS011;7934;48.710;9.024;2022-12-10T15:13:05;28.37;;;16.53;;
15667;SDS011;7934;48.710;9.024;2022-12-10T15:15:36;30.40;;;17.63;;
15667;SDS011;7934;48.710;9.024;2022-12-10T15:18:09;27.73;;;15.50;;
15667;SDS011;7934;48.710;9.024;2022-12-10T15:20:38;27.47;;;16.47;;
15667;SDS011;7934;48.710;9.024;2022-12-10T15:23:17;30.53;;;16.80;;
15667;SDS011;7934;48.710;9.024;2022-12-10T15:25:47;31.50;;;16.63;;
15667;SDS011;7934;48.710;9.024;2022-12-10T15:28:36;30.23;;;15.77;;
15667;SDS011;7934;48.710;9.024;2022-12-10T15:31:10;29.80;;;17.30;;
15667;SDS011;7934;48.710;9.024;2022-12-10T15:33:45;29.53;;;16.83;;
15667;SDS011;7934;48.710;9.024;2022-12-10T15:36:28;28.27;;;17.13;;
15667;SDS011;7934;48.710;9.024;2022-12-10T15:39:13;30.10;;;16.83;;
15667;SDS011;7934;48.710;9.024;2022-12-10T15:41:45;35.97;;;18.30;;
15667;SDS011;7934;48.710;9.024;2022-12-10T15:47:32;32.43;;;18.20;;
15667;SDS011;7934;48.710;9.024;2022-12-10T15:50:42;31.13;;;18.73;;
15667;SDS011;7934;48.710;9.024;2022-12-10T15:57:19;36.20;;;19.17;;
15667;SDS011;7934;48.710;9.024;2022-12-10T16:02:39;30.87;;;17.97;;
15667;SDS011;7934;48.710;9.024;2022-12-10T16:05:21;29.97;;;17.73;;
15667;SDS011;7934;48.710;9.024;2022-12-10T16:07:58;30.33;;;17.30;;
15667;SDS011;7934;48.710;9.024;2022-12-10T16:10:37;31.57;;;17.53;;
15667;SDS011;7934;48.710;9.024;2022-12-10T16:15:11;24.43;;;15.30;;
15667;SDS011;7934;48.710;9.024;2022-12-10T16:17:23;28.83;;;16.97;;
15667;SDS011;7934;48.710;9.024;2022-12-10T16:20:16;26.73;;;15.83;;
15667;SDS011;7934;48.710;9.024;2022-12-10T16:22:52;24.93;;;15.90;;
15667;SDS011;7934;48.710;9.024;2022-12-10T16:25:54;29.97;;;17.30;;
15667;SDS011;7934;48.710;9.024;2022-12-10T16:28:24;30.57;;;16.37;;
15667;SDS011;7934;48.710;9.024;2022-12-10T16:30:57;32.40;;;17.53;;
15667;SDS011;7934;48.710;9.024;2022-12-10T16:33:53;29.90;;;16.03;;
15667;SDS011;7934;48.710;9.024;2022-12-10T16:36:39;33.93;;;18.13;;
15667;SDS011;7934;48.710;9.024;2022-12-10T16:39:16;31.40;;;17.03;;
15667;SDS011;7934;48.710;9.024;2022-12-10T16:50:30;30.47;;;18.03;;
15667;SDS011;7934;48.710;9.024;2022-12-10T16:51:34;32.07;;;17.97;;
15667;SDS011;7934;48.710;9.024;2022-12-10T16:54:21;32.30;;;18.73;;
15667;SDS011;7934;48.710;9.024;2022-12-10T17:00:00;32.63;;;17.40;;
15667;SDS011;7934;48.710;9.024;2022-12-10T17:03:05;30.33;;;18.27;;
15667;SDS011;7934;48.710;9.024;2022-12-10T17:14:53;35.50;;;19.60;;
15667;SDS011;7934;48.710;9.024;2022-12-10T17:17:40;30.93;;;17.63;;
15667;SDS011;7934;48.710;9.024;2022-12-10T17:21:23;35.77;;;18.50;;
15667;SDS011;7934;48.710;9.024;2022-12-10T17:23:49;29.73;;;16.73;;
15667;SDS011;7934;48.710;9.024;2022-12-10T17:26:35;31.03;;;17.73;;
15667;SDS011;7934;48.710;9.024;2022-12-10T17:29:25;30.63;;;17.33;;
15667;SDS011;7934;48.710;9.024;2022-12-10T17:38:18;34.13;;;19.07;;
15667;SDS011;7934;48.710;9.024;2022-12-10T17:40:53;34.57;;;18.27;;
15667;SDS011;7934;48.710;9.024;2022-12-10T17:43:35;29.20;;;17.70;;
15667;SDS011;7934;48.710;9.024;2022-12-10T17:49:57;31.30;;;18.33;;
15667;SDS011;7934;48.710;9.024;2022-12-10T17:55:57;34.17;;;19.50;;
15667;SDS011;7934;48.710;9.024;2022-12-10T17:58:41;33.63;;;19.43;;
15667;SDS011;7934;48.710;9.024;2022-12-10T18:04:32;38.33;;;20.63;;
15667;SDS011;7934;48.710;9.024;2022-12-10T18:07:11;38.00;;;21.47;;
15667;SDS011;7934;48.710;9.024;2022-12-10T18:09:44;35.53;;;19.63;;
15667;SDS011;7934;48.710;9.024;2022-12-10T18:12:41;39.93;;;21.00;;
15667;SDS011;7934;48.710;9.024;2022-12-10T18:15:29;38.83;;;21.00;;
15667;SDS011;7934;48.710;9.024;2022-12-10T18:18:11;36.03;;;19.90;;
15667;SDS011;7934;48.710;9.024;2022-12-10T18:28:14;43.57;;;22.00;;
15667;SDS011;7934;48.710;9.024;2022-12-10T18:30:09;33.70;;;19.33;;
15667;SDS011;7934;48.710;9.024;2022-12-10T18:32:39;36.37;;;20.57;;
15667;SDS011;7934;48.710;9.024;2022-12-10T18:38:24;36.07;;;20.17;;
15667;SDS011;7934;48.710;9.024;2022-12-10T18:45:08;35.77;;;20.07;;
15667;SDS011;7934;48.710;9.024;2022-12-10T19:01:41;36.97;;;21.70;;
15667;SDS011;7934;48.710;9.024;2022-12-10T19:03:09;37.63;;;21.77;;
15667;SDS011;7934;48.710;9.024;2022-12-10T19:06:11;38.50;;;21.10;;
15667;SDS011;7934;48.710;9.024;2022-12-10T19:11:29;39.10;;;21.50;;
15667;SDS011;7934;48.710;9.024;2022-12-10T19:14:58;41.03;;;21.40;;
15667;SDS011;7934;48.710;9.024;2022-12-10T19:17:35;40.03;;;21.20;;
15667;SDS011;7934;48.710;9.024;2022-12-10T19:20:11;36.10;;;20.67;;
15667;SDS011;7934;48.710;9.024;2022-12-10T19:22:46;37.33;;;20.90;;
15667;SDS011;7934;48.710;9.024;2022-12-10T19:28:13;34.60;;;20.33;;
15667;SDS011;7934;48.710;9.024;2022-12-10T19:31:05;38.73;;;20.97;;
15667;SDS011;7934;48.710;9.024;2022-12-10T19:33:50;34.20;;;19.37;;
15667;SDS011;7934;48.710;9.024;2022-12-10T19:36:28;38.50;;;20.13;;
15667;SDS011;7934;48.710;9.024;2022-12-10T19:39:00;37.83;;;20.90;;
15667;SDS011;7934;48.710;9.024;2022-12-10T19:50:10;37.10;;;19.73;;
15667;SDS011;7934;48.710;9.024;2022-12-10T19:53:18;33.87;;;18.27;;
15667;SDS011;7934;48.710;9.024;2022-12-10T19:55:45;38.40;;;21.23;;
15667;SDS011;7934;48.710;9.024;2022-12-10T19:58:13;38.63;;;19.77;;
15667;SDS011;7934;48.710;9.024;2022-12-10T20:00:40;34.70;;;19.97;;
15667;SDS011;7934;48.710;9.024;2022-12-10T20:03:35;39.57;;;21.17;;
15667;SDS011;7934;48.710;9.024;2022-12-10T20:06:08;36.93;;;20.33;;
15667;SDS011;7934;48.710;9.024;2022-12-10T20:11:47;34.97;;;19.77;;
15667;SDS011;7934;48.710;9.024;2022-12-10T20:14:19;36.50;;;20.27;;
15667;SDS011;7934;48.710;9.024;2022-12-10T20:19:54;37.43;;;21.00;;
15667;SDS011;7934;48.710;9.024;2022-12-10T20:25:41;34.37;;;18.87;;
15667;SDS011;7934;48.710;9.024;2022-12-10T20:28:48;32.37;;;19.10;;
15667;SDS011;7934;48.710;9.024;2022-12-10T20:31:31;31.53;;;18.43;;
15667;SDS011;7934;48.710;9.024;2022-12-10T20:34:04;36.07;;;19.23;;
15667;SDS011;7934;48.710;9.024;2022-12-10T20:37:22;34.10;;;18.30;;
15667;SDS011;7934;48.710;9.024;2022-12-10T20:46:21;31.03;;;18.10;;
15667;SDS011;7934;48.710;9.024;2022-12-10T20:49:09;34.37;;;18.77;;
15667;SDS011;7934;48.710;9.024;2022-12-10T20:51:40;45.27;;;21.07;;
15667;SDS011;7934;48.710;9.024;2022-12-10T20:54:09;38.80;;;20.63;;
15667;SDS011;7934;48.710;9.024;2022-12-10T20:56:50;38.40;;;19.43;;
15667;SDS011;7934;48.710;9.024;2022-12-10T21:15:09;35.53;;;16.70;;
15667;SDS011;7934;48.710;9.024;2022-12-10T21:21:23;30.70;;;16.23;;
15667;SDS011;7934;48.710;9.024;2022-12-10T21:23:56;37.63;;;19.83;;
15667;SDS011;7934;48.710;9.024;2022-12-10T21:26:40;38.07;;;19.43;;
15667;SDS011;7934;48.710;9.024;2022-12-10T21:29:35;43.77;;;21.33;;
15667;SDS011;7934;48.710;9.024;2022-12-10T21:32:18;49.23;;;22.57;;
15667;SDS011;7934;48.710;9.024;2022-12-10T21:34:56;41.43;;;20.07;;
15667;SDS011;7934;48.710;9.024;2022-12-10T21:37:27;42.67;;;20.27;;
15667;SDS011;7934;48.710;9.024;2022-12-10T21:39:58;41.10;;;19.53;;
15667;SDS011;7934;48.710;9.024;2022-12-10T21:42:39;34.23;;;18.17;;
15667;SDS011;7934;48.710;9.024;2022-12-10T21:45:25;32.13;;;17.90;;
15667;SDS011;7934;48.710;9.024;2022-12-10T21:50:58;33.57;;;17.83;;
15667;SDS011;7934;48.710;9.024;2022-12-10T21:53:42;36.20;;;18.80;;
15667;SDS011;7934;48.710;9.024;2022-12-10T21:56:10;34.57;;;17.77;;
15667;SDS011;7934;48.710;9.024;2022-12-10T21:58:48;40.50;;;20.93;;
15667;SDS011;7934;48.710;9.024;2022-12-10T22:01:34;31.67;;;17.97;;
15667;SDS011;7934;48.710;9.024;2022-12-10T22:07:11;34.83;;;18.13;;
15667;SDS011;7934;48.710;9.024;2022-12-10T22:10:03;43.30;;;21.10;;
15667;SDS011;7934;48.710;9.024;2022-12-10T22:12:52;43.00;;;20.53;;
15667;SDS011;7934;48.710;9.024;2022-12-10T22:15:50;39.10;;;19.97;;
15667;SDS011;7934;48.710;9.024;2022-12-10T22:19:13;37.67;;;19.33;;
15667;SDS011;7934;48.710;9.024;2022-12-10T22:21:40;39.30;;;19.37;;
15667;SDS011;7934;48.710;9.024;2022-12-10T22:24:37;44.67;;;20.93;;
15667;SDS011;7934;48.710;9.024;2022-12-10T22:27:12;40.53;;;20.20;;
15667;SDS011;7934;48.710;9.024;2022-12-10T22:29:56;39.77;;;19.77;;
15667;SDS011;7934;48.710;9.024;2022-12-10T22:32:38;36.53;;;18.33;;
15667;SDS011;7934;48.710;9.024;2022-12-10T22:35:26;35.43;;;18.63;;
15667;SDS011;7934;48.710;9.024;2022-12-10T22:53:26;37.27;;;19.17;;
15667;SDS011;7934;48.710;9.024;2022-12-10T22:59:09;41.60;;;19.37;;
15667;SDS011;7934;48.710;9.024;2022-12-10T23:02:00;37.30;;;19.20;;
15667;SDS011;7934;48.710;9.024;2022-12-10T23:04:53;36.27;;;19.10;;
15667;SDS011;7934;48.710;9.024;2022-12-10T23:07:27;35.63;;;18.43;;
15667;SDS011;7934;48.710;9.024;2022-12-10T23:10:01;38.10;;;19.33;;
15667;SDS011;7934;48.710;9.024;2022-12-10T23:12:57;47.93;;;22.40;;
15667;SDS011;7934;48.710;9.024;2022-12-10T23:15:38;45.83;;;20.97;;
15667;SDS011;7934;48.710;9.024;2022-12-10T23:18:06;41.97;;;21.47;;
15667;SDS011;7934;48.710;9.024;2022-12-10T23:20:51;47.67;;;23.10;;
15667;SDS011;7934;48.710;9.024;2022-12-10T23:23:30;46.47;;;22.37;;
15667;SDS011;7934;48.710;9.024;2022-12-10T23:26:32;43.27;;;21.10;;
15667;SDS011;7934;48.710;9.024;2022-12-10T23:29:01;39.17;;;19.03;;
15667;SDS011;7934;48.710;9.024;2022-12-10T23:31:39;47.07;;;21.23;;
15667;SDS011;7934;48.710;9.024;2022-12-10T23:34:22;43.77;;;21.83;;
15667;SDS011;7934;48.710;9.024;2022-12-10T23:36:53;41.87;;;19.80;;
15667;SDS011;7934;48.710;9.024;2022-12-10T23:39:24;39.63;;;18.87;;
15667;SDS011;7934;48.710;9.024;2022-12-10T23:42:01;41.10;;;19.07;;
15667;SDS011;7934;48.710;9.024;2022-12-10T23:44:28;36.67;;;18.57;;
15667;SDS011;7934;48.710;9.024;2022-12-10T23:46:57;43.97;;;17.70;;
15667;SDS011;7934;48.710;9.024;2022-12-10T23:49:40;38.07;;;17.60;;
15667;SDS011;7934;48.710;9.024;2022-12-10T23:52:10;36.07;;;18.07;;
15667;SDS011;7934;48.710;9.024;2022-12-10T23:54:39;37.07;;;18.73;;
15667;SDS011;7934;48.710;9.024;2022-12-10T23:59:54;40.33;;;16.53;;
